Malcolm, Alabama
Current Conditions -  °F | °C
As of 4:56 AM on Thursday 18 Dec 2014 (Local Time) from KMOB Reporting Station
Clear Clear  
Wind Chill: 39°   Ceiling: Unl
Heat Index: 42°   Visibility: 10mi
Dew Point: 39°   Wind: 5mph
Humidity: 89%   Direction: 50°NE
Pressure: 30.19"   Gusts: NA
Location:  31.19°N, 88.01°W
Report Text: KMOB 181056Z AUTO 05004KT 10SM CLR 06/04 A3019 RMK AO2 SLP221 T00560039
Loading
Personal Weather Stations






























Interactive Weather Map New forecast layout! Learn more

10-Day Weather Forecast

Advertisements
Track Severe Weather on mobile